Gorham, Kansas
Current Conditions -  °F | °C
As of 4:53 PM on Friday 19 Dec 2014 (Local Time) from KRSL Reporting Station
Clear Clear  
Wind Chill: 33°   Ceiling: Unl
Heat Index: 39°   Visibility: 10mi
Dew Point: 35°   Wind: 9mph
Humidity: 86%   Direction: 200°SSW
Pressure: 30.09"   Gusts: NA
Location:  38.88°N, 99.02°W
Report Text: KRSL 192253Z AUTO 20008KT 10SM CLR 04/02 A3009 RMK AO2 SLP206 T00390017
Loading
Personal Weather Stations






























Interactive Weather Map New forecast layout! Learn more

10-Day Weather Forecast

Advertisements
Track Severe Weather on mobile